Airfield :
LOGIN :

Register | Disclaimer

   EN    FR    IT 

 










Legend :    VFR   Marginal VFR   IFR   Intensive IFR   Very Intensive IFR
Visi :
Ceiling :
>= 8 km
>= 3000ft
5 to 8 km
1000 to 3000 ft
1500m to 5 km
500 to 1000 ft
800 to 1500m
200 to 500 ft
< 800m
< 200 ft
Symbols :   Thunderstorms  Fog  Heavy snow  Heavy precipitations  Wind > 20 kt
SIGMETs :     Misc.  Thunderstorms  Icing  Turbulence  Mountain Waves  Volcanic Ashes






- Airport Elevation : 249 ft


EGOS - RAF Shawbury

CURRENT METAR :
  • 281220Z 16010KT 9999 RA FEW007 BKN010 OVC015 05/04 Q0997 TEMPO 6000 RA RMK GRN TEMPO GRN

EXPIRED METARs :
  • 281150Z 16011KT 9999 -RA BKN010 OVC015 05/04 Q0998 TEMPO 6000 RA RMK GRN TEMPO GRN
  • 281120Z 15011KT 9000 -RA OVC010 04/03 Q0999 TEMPO 16015G25KT 6000 RA RMK GRN TEMPO GRN
  • 281050Z 15014KT 7000 RA BKN010 OVC015 04/03 Q1000 TEMPO 16015G25KT 9999 -RA RMK GRN TEMPO GRN
  • 281020Z 15014KT 9999 -RA BKN010 OVC015 04/03 Q1000 TEMPO 16015G25KT 6000 RA RMK GRN TEMPO GRN
  • 280950Z 14013KT 9999 -RA BKN010 OVC015 03/02 Q1001 TEMPO 7000 RA RMK GRN TEMPO GRN

TAF TAF EGOS
Valid from the 28 at 12:00 until the 28 at 18:00 UTC


281044Z 2812/2818 16014KT 9999 -RA BKN010
PROB40
TEMPO 2812/2814 20016G26KT 6000 RA
TEMPO 2814/2818 BKN020
PROB30
TEMPO 2814/2818 20015G25KT BKN025



MET'MAP, your aeronautical weather chart ! - Copyright ORBIFLY December 2007 - Disclaimer

ORBIFLY MET'MAP TEAM :

Programming & Development : Alexandra Zaïnal
Concept & original design : Baudouin d'Aumeries
Assistance for programming : Marc-Olivier Méhu
Technical & hardware support : Manuel Goepfert

Contact : metmap@orbifly.com




SOURCES & CREDITS :

   NOAA